createdAt,value
2023-05-12T00:01:56.733Z,101524.40
2023-05-12T00:06:59.389Z,101524.60
2023-05-12T00:12:02.525Z,101516.20
2023-05-12T00:17:06.633Z,101528.40
2023-05-12T00:22:11.346Z,101530.80
2023-05-12T00:27:14.637Z,101530.60
2023-05-12T00:32:17.294Z,101532.60
2023-05-12T00:37:20.331Z,101531.20
2023-05-12T00:42:22.935Z,101533.60
2023-05-12T00:47:25.885Z,101535.40
2023-05-12T00:52:28.721Z,101535.00
2023-05-12T00:57:33.849Z,101537.40
2023-05-12T01:02:37.112Z,101542.40
2023-05-12T01:07:40.404Z,101544.60
2023-05-12T01:12:42.974Z,101547.00
2023-05-12T01:17:54.300Z,101544.20
2023-05-12T01:22:59.376Z,101550.80
2023-05-12T01:28:03.528Z,101548.80
2023-05-12T01:33:06.252Z,101554.60
2023-05-12T01:38:08.906Z,101556.20
2023-05-12T01:43:11.470Z,101561.60
2023-05-12T01:48:14.465Z,101565.80
2023-05-12T01:53:17.016Z,101567.80
2023-05-12T01:58:20.478Z,101569.00
2023-05-12T02:03:23.375Z,101571.40
2023-05-12T02:08:26.438Z,101578.40
2023-05-12T02:13:29.293Z,101578.60
2023-05-12T02:18:31.963Z,101577.80
2023-05-12T02:23:34.665Z,101581.00
2023-05-12T02:28:37.641Z,101585.00
2023-05-12T02:33:40.261Z,101588.00
2023-05-12T02:38:44.114Z,101595.60
2023-05-12T02:43:46.648Z,101596.40
2023-05-12T02:48:49.210Z,101596.20
2023-05-12T02:53:51.852Z,101594.60
2023-05-12T02:58:54.453Z,101593.60
2023-05-12T03:03:57.051Z,101590.00
2023-05-12T03:08:59.852Z,101592.40
2023-05-12T03:14:02.418Z,101584.20
2023-05-12T03:19:05.353Z,101578.60
2023-05-12T03:24:08.681Z,101571.40
2023-05-12T03:29:11.279Z,101570.80
2023-05-12T03:34:13.806Z,101560.60
2023-05-12T03:39:16.375Z,101553.00
2023-05-12T03:44:19.007Z,101554.40
2023-05-12T03:49:21.765Z,101549.40
2023-05-12T03:54:24.616Z,101543.60
2023-05-12T03:59:31.048Z,101541.80
2023-05-12T04:04:33.567Z,101541.40
2023-05-12T04:09:36.241Z,101545.60
2023-05-12T04:14:43.160Z,101545.40
2023-05-12T04:19:46.778Z,101540.60
2023-05-12T04:24:49.660Z,101532.40
2023-05-12T04:29:52.249Z,101541.40
2023-05-12T04:34:56.592Z,101536.60
2023-05-12T04:39:59.138Z,101539.40
2023-05-12T04:45:01.990Z,101536.40
2023-05-12T04:50:05.784Z,101541.00
2023-05-12T04:55:09.452Z,101539.80
2023-05-12T05:00:13.135Z,101542.00
2023-05-12T05:05:15.948Z,101539.00
2023-05-12T05:10:18.553Z,101537.80
2023-05-12T05:15:21.767Z,101540.80
2023-05-12T05:20:28.773Z,101542.00
2023-05-12T05:25:31.870Z,101540.00
2023-05-12T05:30:34.468Z,101536.80
2023-05-12T05:35:37.308Z,101539.60
2023-05-12T05:40:52.314Z,101543.20
2023-05-12T05:45:58.222Z,101538.40
2023-05-12T05:51:00.785Z,101539.20
2023-05-12T05:56:05.380Z,101549.80
2023-05-12T06:01:08.110Z,101551.20
2023-05-12T06:06:10.828Z,101556.20
2023-05-12T06:11:13.757Z,101560.60
2023-05-12T06:16:17.259Z,101569.20
2023-05-12T06:21:19.985Z,101570.40
2023-05-12T06:26:22.622Z,101570.60
2023-05-12T06:31:25.251Z,101573.60
2023-05-12T06:36:28.895Z,101582.00
2023-05-12T06:41:33.615Z,101583.40
2023-05-12T06:46:36.423Z,101584.60
2023-05-12T06:51:39.185Z,101590.60
2023-05-12T06:56:41.782Z,101582.40
2023-05-12T07:01:44.454Z,101581.40
2023-05-12T07:06:47.163Z,101580.80
2023-05-12T07:11:49.902Z,101579.40
2023-05-12T07:16:52.612Z,101579.40
2023-05-12T07:21:55.418Z,101577.80
2023-05-12T07:26:58.445Z,101573.60
2023-05-12T07:32:01.056Z,101578.60
2023-05-12T07:37:04.354Z,101579.60
2023-05-12T07:42:07.252Z,101585.40
2023-05-12T07:47:10.014Z,101588.00
2023-05-12T07:52:12.787Z,101587.40
2023-05-12T07:57:15.660Z,101584.40
2023-05-12T08:02:18.457Z,101596.80
2023-05-12T08:07:21.372Z,101606.60
2023-05-12T08:12:24.374Z,101607.20
2023-05-12T08:17:29.159Z,101599.20
2023-05-12T08:22:32.466Z,101606.20
2023-05-12T08:27:35.005Z,101596.40
2023-05-12T08:32:37.996Z,101608.40
2023-05-12T08:37:40.658Z,101611.00
2023-05-12T08:42:55.858Z,101615.60
2023-05-12T08:47:59.903Z,101619.00
2023-05-12T08:53:05.725Z,101619.40
2023-05-12T08:58:09.682Z,101608.80
2023-05-12T09:03:15.295Z,101613.80
2023-05-12T09:08:18.464Z,101616.00
2023-05-12T09:13:36.546Z,101610.40
2023-05-12T09:18:58.770Z,101614.40
2023-05-12T09:24:08.942Z,101612.00
2023-05-12T09:29:20.758Z,101610.40
2023-05-12T09:34:37.451Z,101610.20
2023-05-12T09:39:40.613Z,101605.60
2023-05-12T09:44:43.593Z,101606.00
2023-05-12T09:49:52.199Z,101605.00
2023-05-12T09:54:54.880Z,101603.80
2023-05-12T09:59:57.575Z,101607.00
2023-05-12T10:05:06.729Z,101604.60
2023-05-12T10:10:16.199Z,101596.80
2023-05-12T10:15:20.572Z,101603.60
2023-05-12T10:20:24.908Z,101602.40
2023-05-12T10:25:29.159Z,101611.80
2023-05-12T10:30:32.770Z,101615.60
2023-05-12T10:35:38.197Z,101608.80
2023-05-12T10:41:01.244Z,101612.00
2023-05-12T10:46:13.408Z,101613.60
2023-05-12T10:51:43.464Z,101594.80
2023-05-12T10:56:46.862Z,101610.00
2023-05-12T11:02:26.192Z,101604.60
2023-05-12T11:07:35.418Z,101600.00
2023-05-12T11:12:38.509Z,101591.00
2023-05-12T11:17:41.499Z,101581.20
2023-05-12T11:22:44.285Z,101592.20
2023-05-12T11:27:50.687Z,101594.80
2023-05-12T11:33:03.781Z,101583.60
2023-05-12T11:38:17.187Z,101569.80
2023-05-12T11:43:24.654Z,101579.80
2023-05-12T11:48:36.094Z,101582.20
2023-05-12T11:53:41.145Z,101567.00
2023-05-12T11:58:58.810Z,101569.00
2023-05-12T12:04:01.564Z,101576.40
2023-05-12T12:09:04.316Z,101571.80
2023-05-12T12:14:08.557Z,101575.00
2023-05-12T12:19:11.272Z,101577.80
2023-05-12T12:24:14.278Z,101573.40
2023-05-12T12:29:17.872Z,101569.20
2023-05-12T12:34:20.587Z,101568.40
2023-05-12T12:39:23.391Z,101563.00
2023-05-12T12:44:26.154Z,101556.00
2023-05-12T12:49:28.936Z,101545.00
2023-05-12T12:54:31.563Z,101547.20
2023-05-12T12:59:34.098Z,101541.80
2023-05-12T13:04:37.009Z,101545.60
2023-05-12T13:09:39.623Z,101540.60
2023-05-12T13:14:42.225Z,101543.60
2023-05-12T13:19:44.788Z,101544.80
2023-05-12T13:24:48.014Z,101522.80
2023-05-12T13:29:50.593Z,101519.40
2023-05-12T13:34:53.473Z,101517.60
2023-05-12T13:39:56.369Z,101513.40
2023-05-12T13:44:59.027Z,101515.60
2023-05-12T13:50:01.883Z,101515.00
2023-05-12T13:55:05.428Z,101525.40
2023-05-12T14:00:09.126Z,101511.40
2023-05-12T14:05:12.044Z,101510.60
2023-05-12T14:10:15.197Z,101511.40
2023-05-12T14:20:23.292Z,101504.80
2023-05-12T14:25:26.187Z,101504.80
2023-05-12T14:30:29.254Z,101514.20
2023-05-12T14:35:32.612Z,101510.00
2023-05-12T14:40:35.231Z,101503.20
2023-05-12T14:45:38.289Z,101512.00
2023-05-12T14:50:42.809Z,101511.60
2023-05-12T14:55:45.716Z,101498.40
2023-05-12T15:00:51.256Z,101501.00
2023-05-12T15:06:05.510Z,101501.20
2023-05-12T15:11:10.467Z,101504.40
2023-05-12T15:16:13.584Z,101505.20
2023-05-12T15:21:17.471Z,101499.00
2023-05-12T15:26:32.790Z,101504.60
2023-05-12T15:31:37.515Z,101501.40
2023-05-12T15:36:40.264Z,101499.40
2023-05-12T15:41:43.238Z,101492.20
2023-05-12T15:46:46.380Z,101495.00
2023-05-12T15:51:49.046Z,101487.40
2023-05-12T15:56:51.601Z,101485.60
2023-05-12T16:01:55.434Z,101494.60
2023-05-12T16:06:58.105Z,101488.20
2023-05-12T16:12:01.243Z,101488.00
2023-05-12T16:17:04.198Z,101486.20
2023-05-12T16:22:06.812Z,101478.80
2023-05-12T16:27:09.426Z,101479.20
2023-05-12T16:32:12.109Z,101480.60
2023-05-12T16:37:14.810Z,101487.40
2023-05-12T16:42:17.488Z,101487.40
2023-05-12T16:47:20.760Z,101491.20
2023-05-12T16:52:23.472Z,101500.80
2023-05-12T16:57:26.848Z,101501.00
2023-05-12T17:02:29.511Z,101505.00
2023-05-12T17:07:35.161Z,101508.00
2023-05-12T17:12:37.876Z,101502.60
2023-05-12T17:17:40.636Z,101506.00
2023-05-12T17:22:47.156Z,101509.00
2023-05-12T17:27:50.332Z,101511.20
2023-05-12T17:32:53.578Z,101512.20
2023-05-12T17:37:56.366Z,101516.80
2023-05-12T17:42:59.080Z,101519.40
2023-05-12T17:48:02.624Z,101521.80
2023-05-12T17:53:06.662Z,101524.60
2023-05-12T17:58:09.260Z,101526.60
2023-05-12T18:03:12.115Z,101527.40
2023-05-12T18:08:14.850Z,101527.00
2023-05-12T18:13:17.476Z,101538.80
2023-05-12T18:18:20.116Z,101550.00
2023-05-12T18:23:22.722Z,101549.80
2023-05-12T18:28:25.329Z,101554.40
2023-05-12T18:33:28.019Z,101551.00
2023-05-12T18:38:30.606Z,101556.00
2023-05-12T18:43:34.830Z,101558.40
2023-05-12T18:48:37.494Z,101564.20
2023-05-12T18:53:40.288Z,101574.00
2023-05-12T18:58:42.910Z,101576.80
2023-05-12T19:03:45.559Z,101583.20
2023-05-12T19:08:48.508Z,101594.40
2023-05-12T19:13:52.299Z,101596.80
2023-05-12T19:18:55.450Z,101595.80
2023-05-12T19:23:58.184Z,101598.80
2023-05-12T19:29:02.066Z,101608.80
2023-05-12T19:34:04.845Z,101610.40
2023-05-12T19:39:07.386Z,101613.80
2023-05-12T19:44:10.043Z,101623.00
2023-05-12T19:49:13.899Z,101618.80
2023-05-12T19:54:16.560Z,101624.80
2023-05-12T19:59:19.202Z,101622.80
2023-05-12T20:04:23.336Z,101630.00
2023-05-12T20:09:26.107Z,101630.60
2023-05-12T20:14:28.815Z,101623.20
2023-05-12T20:19:33.477Z,101623.00
2023-05-12T20:24:36.379Z,101627.20
2023-05-12T20:29:39.476Z,101622.20
2023-05-12T20:34:42.238Z,101624.80
2023-05-12T20:39:44.994Z,101622.80
2023-05-12T20:44:47.627Z,101623.60
2023-05-12T20:49:57.002Z,101629.20
2023-05-12T20:54:59.947Z,101632.60
2023-05-12T21:00:02.868Z,101634.60
2023-05-12T21:05:06.223Z,101637.40
2023-05-12T21:10:09.334Z,101641.00
2023-05-12T21:15:13.048Z,101644.00
2023-05-12T21:20:15.589Z,101639.60
2023-05-12T21:25:18.219Z,101645.20
2023-05-12T21:30:21.605Z,101647.60
2023-05-12T21:35:24.539Z,101652.60
2023-05-12T21:40:27.157Z,101653.40
2023-05-12T21:45:29.833Z,101653.40
2023-05-12T21:50:32.389Z,101649.80
2023-05-12T21:55:34.971Z,101655.80
2023-05-12T22:00:38.839Z,101660.60
2023-05-12T22:05:41.433Z,101658.40
2023-05-12T22:10:44.299Z,101657.20
2023-05-12T22:15:46.894Z,101655.00
2023-05-12T22:20:49.553Z,101656.20
2023-05-12T22:25:52.300Z,101660.80
2023-05-12T22:30:54.884Z,101664.20
2023-05-12T22:36:01.354Z,101662.20
2023-05-12T22:41:04.056Z,101665.80
2023-05-12T22:46:09.458Z,101669.80
2023-05-12T22:51:12.202Z,101674.60
2023-05-12T22:56:15.822Z,101671.00
2023-05-12T23:01:18.834Z,101668.20
2023-05-12T23:06:21.473Z,101670.60
2023-05-12T23:11:24.128Z,101663.20
2023-05-12T23:16:26.978Z,101674.00
2023-05-12T23:21:29.670Z,101671.40
2023-05-12T23:26:32.649Z,101677.20
2023-05-12T23:31:35.271Z,101671.00
2023-05-12T23:36:38.058Z,101674.60
2023-05-12T23:41:40.796Z,101665.80
2023-05-12T23:46:43.673Z,101667.60
2023-05-12T23:51:46.583Z,101667.00
2023-05-12T23:56:49.231Z,101667.60
